sensor_id;sensor_type;location;lat;lon;timestamp;temperature;humidity
36292;DHT22;22327;51.208;6.418;2022-07-23T00:00:59;20.70;99.90
36292;DHT22;22327;51.208;6.418;2022-07-23T00:03:24;20.60;99.90
36292;DHT22;22327;51.208;6.418;2022-07-23T00:05:50;20.60;99.90
36292;DHT22;22327;51.208;6.418;2022-07-23T00:08:16;20.60;99.90
36292;DHT22;22327;51.208;6.418;2022-07-23T00:10:41;20.60;99.90
36292;DHT22;22327;51.208;6.418;2022-07-23T00:13:07;20.60;99.90
36292;DHT22;22327;51.208;6.418;2022-07-23T00:15:33;20.60;99.90
36292;DHT22;22327;51.208;6.418;2022-07-23T00:17:58;20.60;99.90
36292;DHT22;22327;51.208;6.418;2022-07-23T00:20:24;20.60;99.90
36292;DHT22;22327;51.208;6.418;2022-07-23T00:22:51;20.60;99.90
36292;DHT22;22327;51.208;6.418;2022-07-23T00:25:17;20.50;99.90
36292;DHT22;22327;51.208;6.418;2022-07-23T00:27:43;20.40;99.90
36292;DHT22;22327;51.208;6.418;2022-07-23T00:30:09;20.40;99.90
36292;DHT22;22327;51.208;6.418;2022-07-23T00:32:52;20.40;99.90
36292;DHT22;22327;51.208;6.418;2022-07-23T00:35:21;20.30;99.90
36292;DHT22;22327;51.208;6.418;2022-07-23T00:37:48;20.30;99.90
36292;DHT22;22327;51.208;6.418;2022-07-23T00:40:14;20.40;99.90
36292;DHT22;22327;51.208;6.418;2022-07-23T00:42:39;20.40;99.90
36292;DHT22;22327;51.208;6.418;2022-07-23T00:45:06;20.30;99.90
36292;DHT22;22327;51.208;6.418;2022-07-23T00:47:32;20.30;99.90
36292;DHT22;22327;51.208;6.418;2022-07-23T00:49:58;20.20;99.90
36292;DHT22;22327;51.208;6.418;2022-07-23T00:52:24;20.20;99.90
36292;DHT22;22327;51.208;6.418;2022-07-23T00:54:50;20.20;99.90
36292;DHT22;22327;51.208;6.418;2022-07-23T00:57:16;20.20;99.90
36292;DHT22;22327;51.208;6.418;2022-07-23T00:59:42;20.20;99.90
36292;DHT22;22327;51.208;6.418;2022-07-23T01:02:07;20.20;99.90
36292;DHT22;22327;51.208;6.418;2022-07-23T01:04:33;20.20;99.90
36292;DHT22;22327;51.208;6.418;2022-07-23T01:06:59;20.20;99.90
36292;DHT22;22327;51.208;6.418;2022-07-23T01:09:25;20.20;99.90
36292;DHT22;22327;51.208;6.418;2022-07-23T01:11:51;20.20;99.90
36292;DHT22;22327;51.208;6.418;2022-07-23T01:14:18;20.10;99.90
36292;DHT22;22327;51.208;6.418;2022-07-23T01:16:46;20.20;99.90
36292;DHT22;22327;51.208;6.418;2022-07-23T01:19:12;20.20;99.90
36292;DHT22;22327;51.208;6.418;2022-07-23T01:21:49;20.20;99.90
36292;DHT22;22327;51.208;6.418;2022-07-23T01:24:15;20.10;99.90
36292;DHT22;22327;51.208;6.418;2022-07-23T01:26:45;20.10;99.90
36292;DHT22;22327;51.208;6.418;2022-07-23T01:29:11;20.10;99.90
36292;DHT22;22327;51.208;6.418;2022-07-23T01:31:37;20.00;99.90
36292;DHT22;22327;51.208;6.418;2022-07-23T01:34:03;20.00;99.90
36292;DHT22;22327;51.208;6.418;2022-07-23T01:36:29;20.00;99.90
36292;DHT22;22327;51.208;6.418;2022-07-23T01:38:55;20.00;99.90
36292;DHT22;22327;51.208;6.418;2022-07-23T01:41:21;19.90;99.90
36292;DHT22;22327;51.208;6.418;2022-07-23T01:43:47;19.80;99.90
36292;DHT22;22327;51.208;6.418;2022-07-23T01:46:12;19.80;99.90
36292;DHT22;22327;51.208;6.418;2022-07-23T01:48:38;19.70;99.90
36292;DHT22;22327;51.208;6.418;2022-07-23T01:51:05;19.60;99.90
36292;DHT22;22327;51.208;6.418;2022-07-23T01:53:30;19.60;99.90
36292;DHT22;22327;51.208;6.418;2022-07-23T01:55:57;19.50;99.90
36292;DHT22;22327;51.208;6.418;2022-07-23T01:58:22;19.50;99.90
36292;DHT22;22327;51.208;6.418;2022-07-23T02:00:48;19.50;99.90
36292;DHT22;22327;51.208;6.418;2022-07-23T02:03:14;19.50;99.90
36292;DHT22;22327;51.208;6.418;2022-07-23T02:05:39;19.50;99.90
36292;DHT22;22327;51.208;6.418;2022-07-23T02:08:05;19.50;99.90
36292;DHT22;22327;51.208;6.418;2022-07-23T02:10:31;19.50;99.90
36292;DHT22;22327;51.208;6.418;2022-07-23T02:12:56;19.50;99.90
36292;DHT22;22327;51.208;6.418;2022-07-23T02:15:22;19.40;99.90
36292;DHT22;22327;51.208;6.418;2022-07-23T02:17:48;19.50;99.90
36292;DHT22;22327;51.208;6.418;2022-07-23T02:20:13;19.40;99.90
36292;DHT22;22327;51.208;6.418;2022-07-23T02:22:39;19.40;99.90
36292;DHT22;22327;51.208;6.418;2022-07-23T02:25:06;19.40;99.90
36292;DHT22;22327;51.208;6.418;2022-07-23T02:27:33;19.40;99.90
36292;DHT22;22327;51.208;6.418;2022-07-23T02:29:59;19.40;99.90
36292;DHT22;22327;51.208;6.418;2022-07-23T02:32:25;19.30;99.90
36292;DHT22;22327;51.208;6.418;2022-07-23T02:34:51;19.30;99.90
36292;DHT22;22327;51.208;6.418;2022-07-23T02:37:17;19.20;99.90
36292;DHT22;22327;51.208;6.418;2022-07-23T02:39:43;19.20;99.90
36292;DHT22;22327;51.208;6.418;2022-07-23T02:42:09;19.10;99.90
36292;DHT22;22327;51.208;6.418;2022-07-23T02:44:34;19.00;99.90
36292;DHT22;22327;51.208;6.418;2022-07-23T02:47:00;19.00;99.90
36292;DHT22;22327;51.208;6.418;2022-07-23T02:49:26;18.90;99.90
36292;DHT22;22327;51.208;6.418;2022-07-23T02:51:51;18.80;99.90
36292;DHT22;22327;51.208;6.418;2022-07-23T02:54:17;18.80;99.90
36292;DHT22;22327;51.208;6.418;2022-07-23T02:56:43;18.80;99.90
36292;DHT22;22327;51.208;6.418;2022-07-23T02:59:08;18.70;99.90
36292;DHT22;22327;51.208;6.418;2022-07-23T03:01:34;18.70;99.90
36292;DHT22;22327;51.208;6.418;2022-07-23T03:04:00;18.70;99.90
36292;DHT22;22327;51.208;6.418;2022-07-23T03:06:25;18.70;99.90
36292;DHT22;22327;51.208;6.418;2022-07-23T03:08:51;18.70;99.90
36292;DHT22;22327;51.208;6.418;2022-07-23T03:11:17;18.60;99.90
36292;DHT22;22327;51.208;6.418;2022-07-23T03:13:43;18.60;99.90
36292;DHT22;22327;51.208;6.418;2022-07-23T03:16:09;18.60;99.90
36292;DHT22;22327;51.208;6.418;2022-07-23T03:18:35;18.50;99.90
36292;DHT22;22327;51.208;6.418;2022-07-23T03:21:00;18.50;99.90
36292;DHT22;22327;51.208;6.418;2022-07-23T03:23:26;18.50;99.90
36292;DHT22;22327;51.208;6.418;2022-07-23T03:25:52;18.50;99.90
36292;DHT22;22327;51.208;6.418;2022-07-23T03:28:18;18.50;99.90
36292;DHT22;22327;51.208;6.418;2022-07-23T03:30:45;18.40;99.90
36292;DHT22;22327;51.208;6.418;2022-07-23T03:33:18;18.40;99.90
36292;DHT22;22327;51.208;6.418;2022-07-23T03:35:45;18.40;99.90
36292;DHT22;22327;51.208;6.418;2022-07-23T03:38:11;18.30;99.90
36292;DHT22;22327;51.208;6.418;2022-07-23T03:40:36;18.30;99.90
36292;DHT22;22327;51.208;6.418;2022-07-23T03:43:02;18.40;99.90
36292;DHT22;22327;51.208;6.418;2022-07-23T03:45:28;18.30;99.90
36292;DHT22;22327;51.208;6.418;2022-07-23T03:47:53;18.30;99.90
36292;DHT22;22327;51.208;6.418;2022-07-23T03:50:19;18.30;99.90
36292;DHT22;22327;51.208;6.418;2022-07-23T03:52:45;18.20;99.90
36292;DHT22;22327;51.208;6.418;2022-07-23T03:55:11;18.20;99.90
36292;DHT22;22327;51.208;6.418;2022-07-23T03:57:36;18.20;99.90
36292;DHT22;22327;51.208;6.418;2022-07-23T04:00:04;18.30;99.90
36292;DHT22;22327;51.208;6.418;2022-07-23T04:02:30;18.30;99.90
36292;DHT22;22327;51.208;6.418;2022-07-23T04:04:56;18.30;99.90
36292;DHT22;22327;51.208;6.418;2022-07-23T04:07:21;18.30;99.90
36292;DHT22;22327;51.208;6.418;2022-07-23T04:09:47;18.40;99.90
36292;DHT22;22327;51.208;6.418;2022-07-23T04:12:13;18.30;99.90
36292;DHT22;22327;51.208;6.418;2022-07-23T04:14:39;18.40;99.90
36292;DHT22;22327;51.208;6.418;2022-07-23T04:17:04;18.50;99.90
36292;DHT22;22327;51.208;6.418;2022-07-23T04:19:30;18.50;99.90
36292;DHT22;22327;51.208;6.418;2022-07-23T04:21:56;18.60;99.90
36292;DHT22;22327;51.208;6.418;2022-07-23T04:24:23;18.80;99.90
36292;DHT22;22327;51.208;6.418;2022-07-23T04:26:48;18.90;99.90
36292;DHT22;22327;51.208;6.418;2022-07-23T04:29:14;19.10;99.90
36292;DHT22;22327;51.208;6.418;2022-07-23T04:31:39;19.30;99.90
36292;DHT22;22327;51.208;6.418;2022-07-23T04:34:05;19.50;99.90
36292;DHT22;22327;51.208;6.418;2022-07-23T04:36:30;19.70;99.90
36292;DHT22;22327;51.208;6.418;2022-07-23T04:38:56;19.90;99.90
36292;DHT22;22327;51.208;6.418;2022-07-23T04:41:21;20.10;99.90
36292;DHT22;22327;51.208;6.418;2022-07-23T04:43:47;20.30;99.90
36292;DHT22;22327;51.208;6.418;2022-07-23T04:46:12;20.40;99.90
36292;DHT22;22327;51.208;6.418;2022-07-23T04:48:39;20.60;99.90
36292;DHT22;22327;51.208;6.418;2022-07-23T04:51:05;20.90;99.90
36292;DHT22;22327;51.208;6.418;2022-07-23T04:53:31;21.20;99.90
36292;DHT22;22327;51.208;6.418;2022-07-23T04:55:56;21.60;99.90
36292;DHT22;22327;51.208;6.418;2022-07-23T04:58:22;22.00;99.90
36292;DHT22;22327;51.208;6.418;2022-07-23T05:00:48;22.30;99.90
36292;DHT22;22327;51.208;6.418;2022-07-23T05:03:13;22.70;99.90
36292;DHT22;22327;51.208;6.418;2022-07-23T05:05:39;22.90;99.90
36292;DHT22;22327;51.208;6.418;2022-07-23T05:08:05;23.20;99.90
36292;DHT22;22327;51.208;6.418;2022-07-23T05:10:30;23.30;99.90
36292;DHT22;22327;51.208;6.418;2022-07-23T05:12:56;23.50;99.90
36292;DHT22;22327;51.208;6.418;2022-07-23T05:15:22;23.70;99.10
36292;DHT22;22327;51.208;6.418;2022-07-23T05:17:47;24.00;99.70
36292;DHT22;22327;51.208;6.418;2022-07-23T05:20:14;24.20;96.00
36292;DHT22;22327;51.208;6.418;2022-07-23T05:22:39;24.60;97.50
36292;DHT22;22327;51.208;6.418;2022-07-23T05:25:06;25.00;94.80
36292;DHT22;22327;51.208;6.418;2022-07-23T05:27:32;25.20;95.00
36292;DHT22;22327;51.208;6.418;2022-07-23T05:29:57;25.50;94.90
36292;DHT22;22327;51.208;6.418;2022-07-23T05:32:23;25.70;92.80
36292;DHT22;22327;51.208;6.418;2022-07-23T05:34:49;26.00;94.30
36292;DHT22;22327;51.208;6.418;2022-07-23T05:37:15;26.30;95.70
36292;DHT22;22327;51.208;6.418;2022-07-23T05:39:40;26.70;95.00
36292;DHT22;22327;51.208;6.418;2022-07-23T05:42:06;26.90;94.60
36292;DHT22;22327;51.208;6.418;2022-07-23T05:44:31;26.90;93.60
36292;DHT22;22327;51.208;6.418;2022-07-23T05:46:57;27.00;94.20
36292;DHT22;22327;51.208;6.418;2022-07-23T05:49:22;27.40;95.70
36292;DHT22;22327;51.208;6.418;2022-07-23T05:51:48;27.60;93.40
36292;DHT22;22327;51.208;6.418;2022-07-23T05:54:13;27.90;92.40
36292;DHT22;22327;51.208;6.418;2022-07-23T05:56:39;28.10;92.10
36292;DHT22;22327;51.208;6.418;2022-07-23T05:59:05;28.40;91.70
36292;DHT22;22327;51.208;6.418;2022-07-23T06:01:31;28.40;89.50
36292;DHT22;22327;51.208;6.418;2022-07-23T06:03:56;28.40;92.00
36292;DHT22;22327;51.208;6.418;2022-07-23T06:06:22;28.50;90.50
36292;DHT22;22327;51.208;6.418;2022-07-23T06:08:48;28.50;90.50
36292;DHT22;22327;51.208;6.418;2022-07-23T06:11:13;28.70;90.30
36292;DHT22;22327;51.208;6.418;2022-07-23T06:13:39;28.70;89.60
36292;DHT22;22327;51.208;6.418;2022-07-23T06:16:04;28.80;89.80
36292;DHT22;22327;51.208;6.418;2022-07-23T06:18:30;29.20;91.50
36292;DHT22;22327;51.208;6.418;2022-07-23T06:20:55;29.90;89.90
36292;DHT22;22327;51.208;6.418;2022-07-23T06:23:21;30.20;84.90
36292;DHT22;22327;51.208;6.418;2022-07-23T06:25:46;30.10;83.70
36292;DHT22;22327;51.208;6.418;2022-07-23T06:28:12;29.80;83.80
36292;DHT22;22327;51.208;6.418;2022-07-23T06:30:37;29.90;84.10
36292;DHT22;22327;51.208;6.418;2022-07-23T06:33:03;29.90;80.70
36292;DHT22;22327;51.208;6.418;2022-07-23T06:35:29;29.60;80.10
36292;DHT22;22327;51.208;6.418;2022-07-23T06:37:54;29.50;82.70
36292;DHT22;22327;51.208;6.418;2022-07-23T06:40:20;29.70;83.70
36292;DHT22;22327;51.208;6.418;2022-07-23T06:42:46;30.20;80.80
36292;DHT22;22327;51.208;6.418;2022-07-23T06:45:11;30.60;81.90
36292;DHT22;22327;51.208;6.418;2022-07-23T06:47:37;30.90;83.50
36292;DHT22;22327;51.208;6.418;2022-07-23T06:50:03;31.40;81.40
36292;DHT22;22327;51.208;6.418;2022-07-23T06:52:29;31.90;79.30
36292;DHT22;22327;51.208;6.418;2022-07-23T06:54:55;32.30;78.00
36292;DHT22;22327;51.208;6.418;2022-07-23T06:57:20;32.90;78.20
36292;DHT22;22327;51.208;6.418;2022-07-23T06:59:46;33.00;67.50
36292;DHT22;22327;51.208;6.418;2022-07-23T07:02:11;32.70;63.40
36292;DHT22;22327;51.208;6.418;2022-07-23T07:04:37;32.10;63.90
36292;DHT22;22327;51.208;6.418;2022-07-23T07:07:03;31.70;68.10
36292;DHT22;22327;51.208;6.418;2022-07-23T07:09:28;31.60;67.30
36292;DHT22;22327;51.208;6.418;2022-07-23T07:11:54;31.80;64.30
36292;DHT22;22327;51.208;6.418;2022-07-23T07:14:20;32.00;62.60
36292;DHT22;22327;51.208;6.418;2022-07-23T07:16:45;32.40;60.20
36292;DHT22;22327;51.208;6.418;2022-07-23T07:19:11;33.00;56.70
36292;DHT22;22327;51.208;6.418;2022-07-23T07:21:36;33.50;53.90
36292;DHT22;22327;51.208;6.418;2022-07-23T07:24:02;33.50;52.50
36292;DHT22;22327;51.208;6.418;2022-07-23T07:26:28;33.70;51.50
36292;DHT22;22327;51.208;6.418;2022-07-23T07:28:53;33.70;51.20
36292;DHT22;22327;51.208;6.418;2022-07-23T07:31:19;34.20;49.40
36292;DHT22;22327;51.208;6.418;2022-07-23T07:33:45;34.30;47.30
36292;DHT22;22327;51.208;6.418;2022-07-23T07:36:10;33.80;47.40
36292;DHT22;22327;51.208;6.418;2022-07-23T07:38:36;34.00;49.00
36292;DHT22;22327;51.208;6.418;2022-07-23T07:41:01;34.50;47.20
36292;DHT22;22327;51.208;6.418;2022-07-23T07:43:27;34.70;45.80
36292;DHT22;22327;51.208;6.418;2022-07-23T07:45:53;34.40;44.20
36292;DHT22;22327;51.208;6.418;2022-07-23T07:48:18;34.30;45.00
36292;DHT22;22327;51.208;6.418;2022-07-23T07:50:44;34.30;45.20
36292;DHT22;22327;51.208;6.418;2022-07-23T07:53:12;34.60;44.90
36292;DHT22;22327;51.208;6.418;2022-07-23T07:55:38;35.00;42.90
36292;DHT22;22327;51.208;6.418;2022-07-23T07:58:04;35.00;42.80
36292;DHT22;22327;51.208;6.418;2022-07-23T08:00:29;34.70;42.30
36292;DHT22;22327;51.208;6.418;2022-07-23T08:02:55;34.90;43.50
36292;DHT22;22327;51.208;6.418;2022-07-23T08:05:22;35.30;41.60
36292;DHT22;22327;51.208;6.418;2022-07-23T08:07:49;35.20;40.20
36292;DHT22;22327;51.208;6.418;2022-07-23T08:10:15;35.50;41.70
36292;DHT22;22327;51.208;6.418;2022-07-23T08:12:41;35.70;40.10
36292;DHT22;22327;51.208;6.418;2022-07-23T08:15:08;35.70;39.20
36292;DHT22;22327;51.208;6.418;2022-07-23T08:17:34;35.60;39.30
36292;DHT22;22327;51.208;6.418;2022-07-23T08:19:59;35.20;38.80
36292;DHT22;22327;51.208;6.418;2022-07-23T08:22:25;34.80;38.80
36292;DHT22;22327;51.208;6.418;2022-07-23T08:24:51;34.50;40.00
36292;DHT22;22327;51.208;6.418;2022-07-23T08:27:16;34.40;40.50
36292;DHT22;22327;51.208;6.418;2022-07-23T08:29:42;34.40;39.70
36292;DHT22;22327;51.208;6.418;2022-07-23T08:32:07;34.70;40.30
36292;DHT22;22327;51.208;6.418;2022-07-23T08:34:33;34.90;39.70
36292;DHT22;22327;51.208;6.418;2022-07-23T08:39:26;35.20;37.80
36292;DHT22;22327;51.208;6.418;2022-07-23T08:41:52;35.20;37.20
36292;DHT22;22327;51.208;6.418;2022-07-23T08:44:18;35.50;38.10
36292;DHT22;22327;51.208;6.418;2022-07-23T08:46:44;35.80;37.70
36292;DHT22;22327;51.208;6.418;2022-07-23T08:49:10;35.80;36.70
36292;DHT22;22327;51.208;6.418;2022-07-23T08:51:35;36.40;36.90
36292;DHT22;22327;51.208;6.418;2022-07-23T08:54:01;36.90;35.90
36292;DHT22;22327;51.208;6.418;2022-07-23T08:56:27;36.70;34.20
36292;DHT22;22327;51.208;6.418;2022-07-23T08:58:54;36.40;34.90
36292;DHT22;22327;51.208;6.418;2022-07-23T09:01:20;36.30;35.60
36292;DHT22;22327;51.208;6.418;2022-07-23T09:03:45;36.20;35.20
36292;DHT22;22327;51.208;6.418;2022-07-23T09:06:11;35.80;35.60
36292;DHT22;22327;51.208;6.418;2022-07-23T09:08:41;35.50;35.20
36292;DHT22;22327;51.208;6.418;2022-07-23T09:11:11;35.20;36.20
36292;DHT22;22327;51.208;6.418;2022-07-23T09:13:51;35.30;35.90
36292;DHT22;22327;51.208;6.418;2022-07-23T09:21:33;35.90;35.00
36292;DHT22;22327;51.208;6.418;2022-07-23T09:26:46;35.30;35.70
36292;DHT22;22327;51.208;6.418;2022-07-23T09:29:21;35.90;36.20
36292;DHT22;22327;51.208;6.418;2022-07-23T09:31:55;36.90;35.80
36292;DHT22;22327;51.208;6.418;2022-07-23T09:34:28;37.80;33.80
36292;DHT22;22327;51.208;6.418;2022-07-23T09:37:18;37.90;32.80
36292;DHT22;22327;51.208;6.418;2022-07-23T09:39:46;38.10;32.10
36292;DHT22;22327;51.208;6.418;2022-07-23T09:42:14;38.70;32.00
36292;DHT22;22327;51.208;6.418;2022-07-23T09:44:42;39.20;30.40
36292;DHT22;22327;51.208;6.418;2022-07-23T09:47:08;39.80;30.30
36292;DHT22;22327;51.208;6.418;2022-07-23T09:49:33;39.80;29.90
36292;DHT22;22327;51.208;6.418;2022-07-23T09:52:00;39.40;30.20
36292;DHT22;22327;51.208;6.418;2022-07-23T09:54:33;39.20;30.10
36292;DHT22;22327;51.208;6.418;2022-07-23T09:57:19;39.10;29.50
36292;DHT22;22327;51.208;6.418;2022-07-23T09:59:46;39.00;29.50
36292;DHT22;22327;51.208;6.418;2022-07-23T10:02:13;38.60;29.30
36292;DHT22;22327;51.208;6.418;2022-07-23T10:04:40;38.20;30.20
36292;DHT22;22327;51.208;6.418;2022-07-23T10:07:08;37.70;31.60
36292;DHT22;22327;51.208;6.418;2022-07-23T10:09:39;37.40;31.90
36292;DHT22;22327;51.208;6.418;2022-07-23T10:12:12;36.70;32.90
36292;DHT22;22327;51.208;6.418;2022-07-23T10:14:59;36.00;33.00
36292;DHT22;22327;51.208;6.418;2022-07-23T10:17:26;35.40;35.10
36292;DHT22;22327;51.208;6.418;2022-07-23T10:19:52;34.50;34.90
36292;DHT22;22327;51.208;6.418;2022-07-23T10:22:24;33.40;35.50
36292;DHT22;22327;51.208;6.418;2022-07-23T10:25:04;32.70;37.80
36292;DHT22;22327;51.208;6.418;2022-07-23T10:27:53;31.80;39.00
36292;DHT22;22327;51.208;6.418;2022-07-23T10:33:50;30.60;41.00
36292;DHT22;22327;51.208;6.418;2022-07-23T10:36:25;30.00;42.10
36292;DHT22;22327;51.208;6.418;2022-07-23T10:39:03;29.70;43.80
36292;DHT22;22327;51.208;6.418;2022-07-23T10:41:36;29.70;43.60
36292;DHT22;22327;51.208;6.418;2022-07-23T10:44:09;29.80;44.50
36292;DHT22;22327;51.208;6.418;2022-07-23T10:46:35;29.90;44.60
36292;DHT22;22327;51.208;6.418;2022-07-23T10:49:25;29.80;43.70
36292;DHT22;22327;51.208;6.418;2022-07-23T10:52:16;29.70;43.70
36292;DHT22;22327;51.208;6.418;2022-07-23T10:54:51;29.60;44.30
36292;DHT22;22327;51.208;6.418;2022-07-23T10:57:20;29.50;44.60
36292;DHT22;22327;51.208;6.418;2022-07-23T11:02:39;29.10;44.90
36292;DHT22;22327;51.208;6.418;2022-07-23T11:07:34;29.20;46.40
36292;DHT22;22327;51.208;6.418;2022-07-23T11:10:00;29.20;45.60
36292;DHT22;22327;51.208;6.418;2022-07-23T11:17:33;28.90;45.50
36292;DHT22;22327;51.208;6.418;2022-07-23T11:22:39;28.70;45.70
36292;DHT22;22327;51.208;6.418;2022-07-23T11:25:05;28.50;46.10
36292;DHT22;22327;51.208;6.418;2022-07-23T11:27:42;28.40;47.00
36292;DHT22;22327;51.208;6.418;2022-07-23T11:30:10;28.40;45.40
36292;DHT22;22327;51.208;6.418;2022-07-23T11:32:40;28.40;46.10
36292;DHT22;22327;51.208;6.418;2022-07-23T11:37:48;28.10;47.00
36292;DHT22;22327;51.208;6.418;2022-07-23T11:40:15;28.00;46.80
36292;DHT22;22327;51.208;6.418;2022-07-23T11:42:52;27.90;47.20
36292;DHT22;22327;51.208;6.418;2022-07-23T11:45:18;27.90;46.70
36292;DHT22;22327;51.208;6.418;2022-07-23T11:47:44;27.70;46.70
36292;DHT22;22327;51.208;6.418;2022-07-23T11:50:09;27.50;47.50
36292;DHT22;22327;51.208;6.418;2022-07-23T11:52:35;27.30;47.60
36292;DHT22;22327;51.208;6.418;2022-07-23T11:57:34;27.40;48.40
36292;DHT22;22327;51.208;6.418;2022-07-23T12:02:31;27.60;48.20
36292;DHT22;22327;51.208;6.418;2022-07-23T12:04:57;27.60;49.00
36292;DHT22;22327;51.208;6.418;2022-07-23T12:07:34;27.60;48.10
36292;DHT22;22327;51.208;6.418;2022-07-23T12:10:04;27.50;48.40
36292;DHT22;22327;51.208;6.418;2022-07-23T12:12:41;27.40;48.30
36292;DHT22;22327;51.208;6.418;2022-07-23T12:15:07;27.30;48.80
36292;DHT22;22327;51.208;6.418;2022-07-23T12:17:36;27.20;48.70
36292;DHT22;22327;51.208;6.418;2022-07-23T12:20:04;27.20;48.80
36292;DHT22;22327;51.208;6.418;2022-07-23T12:22:39;27.30;48.90
36292;DHT22;22327;51.208;6.418;2022-07-23T12:25:14;27.30;48.50
36292;DHT22;22327;51.208;6.418;2022-07-23T12:27:41;27.20;48.50
36292;DHT22;22327;51.208;6.418;2022-07-23T12:30:25;27.20;48.40
36292;DHT22;22327;51.208;6.418;2022-07-23T12:32:54;27.30;48.10
36292;DHT22;22327;51.208;6.418;2022-07-23T12:35:21;27.30;48.90
36292;DHT22;22327;51.208;6.418;2022-07-23T12:37:49;27.40;49.10
36292;DHT22;22327;51.208;6.418;2022-07-23T12:40:46;27.50;48.60
36292;DHT22;22327;51.208;6.418;2022-07-23T12:43:26;27.60;48.60
36292;DHT22;22327;51.208;6.418;2022-07-23T12:48:30;27.40;48.10
36292;DHT22;22327;51.208;6.418;2022-07-23T12:50:56;27.40;48.20
36292;DHT22;22327;51.208;6.418;2022-07-23T12:53:33;27.50;48.40
36292;DHT22;22327;51.208;6.418;2022-07-23T12:56:07;27.60;47.40
36292;DHT22;22327;51.208;6.418;2022-07-23T13:04:16;28.10;48.10
36292;DHT22;22327;51.208;6.418;2022-07-23T13:06:49;28.20;47.50
36292;DHT22;22327;51.208;6.418;2022-07-23T13:09:21;28.20;47.50
36292;DHT22;22327;51.208;6.418;2022-07-23T13:11:48;28.50;47.10
36292;DHT22;22327;51.208;6.418;2022-07-23T13:14:16;28.60;46.50
36292;DHT22;22327;51.208;6.418;2022-07-23T13:16:42;28.70;46.20
36292;DHT22;22327;51.208;6.418;2022-07-23T13:19:08;28.90;45.10
36292;DHT22;22327;51.208;6.418;2022-07-23T13:21:34;28.90;44.30
36292;DHT22;22327;51.208;6.418;2022-07-23T13:23:59;29.00;45.70
36292;DHT22;22327;51.208;6.418;2022-07-23T13:26:26;29.20;45.50
36292;DHT22;22327;51.208;6.418;2022-07-23T13:28:52;29.30;43.30
36292;DHT22;22327;51.208;6.418;2022-07-23T13:31:18;29.40;44.60
36292;DHT22;22327;51.208;6.418;2022-07-23T13:33:44;29.30;43.60
36292;DHT22;22327;51.208;6.418;2022-07-23T13:36:09;29.30;44.10
36292;DHT22;22327;51.208;6.418;2022-07-23T13:38:36;29.20;43.90
36292;DHT22;22327;51.208;6.418;2022-07-23T13:41:02;29.00;44.40
36292;DHT22;22327;51.208;6.418;2022-07-23T13:43:31;29.00;44.40
36292;DHT22;22327;51.208;6.418;2022-07-23T13:45:57;28.90;44.70
36292;DHT22;22327;51.208;6.418;2022-07-23T13:48:23;28.90;44.20
36292;DHT22;22327;51.208;6.418;2022-07-23T13:50:50;28.80;44.00
36292;DHT22;22327;51.208;6.418;2022-07-23T13:53:22;28.90;44.50
36292;DHT22;22327;51.208;6.418;2022-07-23T13:55:49;29.00;43.80
36292;DHT22;22327;51.208;6.418;2022-07-23T13:58:15;28.90;43.90
36292;DHT22;22327;51.208;6.418;2022-07-23T14:00:49;29.00;44.10
36292;DHT22;22327;51.208;6.418;2022-07-23T14:03:16;29.00;43.80
36292;DHT22;22327;51.208;6.418;2022-07-23T14:05:42;28.80;43.90
36292;DHT22;22327;51.208;6.418;2022-07-23T14:08:08;28.70;43.50
36292;DHT22;22327;51.208;6.418;2022-07-23T14:10:34;28.60;43.70
36292;DHT22;22327;51.208;6.418;2022-07-23T14:13:00;28.50;43.80
36292;DHT22;22327;51.208;6.418;2022-07-23T14:15:27;28.60;44.40
36292;DHT22;22327;51.208;6.418;2022-07-23T14:17:54;28.70;43.70
36292;DHT22;22327;51.208;6.418;2022-07-23T14:20:20;28.90;44.10
36292;DHT22;22327;51.208;6.418;2022-07-23T14:22:46;29.00;44.50
36292;DHT22;22327;51.208;6.418;2022-07-23T14:25:12;29.00;44.70
36292;DHT22;22327;51.208;6.418;2022-07-23T14:27:38;29.00;44.80
36292;DHT22;22327;51.208;6.418;2022-07-23T14:30:06;29.00;45.30
36292;DHT22;22327;51.208;6.418;2022-07-23T14:32:32;28.90;44.30
36292;DHT22;22327;51.208;6.418;2022-07-23T14:34:57;28.80;45.00
36292;DHT22;22327;51.208;6.418;2022-07-23T14:37:23;28.90;45.10
36292;DHT22;22327;51.208;6.418;2022-07-23T14:39:50;28.70;44.50
36292;DHT22;22327;51.208;6.418;2022-07-23T14:42:16;28.80;44.60
36292;DHT22;22327;51.208;6.418;2022-07-23T14:44:41;28.80;44.50
36292;DHT22;22327;51.208;6.418;2022-07-23T14:47:08;28.80;44.70
36292;DHT22;22327;51.208;6.418;2022-07-23T14:49:33;28.80;44.80
36292;DHT22;22327;51.208;6.418;2022-07-23T14:51:59;28.90;45.10
36292;DHT22;22327;51.208;6.418;2022-07-23T14:54:26;28.90;45.20
36292;DHT22;22327;51.208;6.418;2022-07-23T14:56:53;28.90;44.80
36292;DHT22;22327;51.208;6.418;2022-07-23T14:59:18;28.90;45.60
36292;DHT22;22327;51.208;6.418;2022-07-23T15:01:44;29.00;45.30
36292;DHT22;22327;51.208;6.418;2022-07-23T15:04:10;29.10;45.30
36292;DHT22;22327;51.208;6.418;2022-07-23T15:06:36;29.20;45.00
36292;DHT22;22327;51.208;6.418;2022-07-23T15:09:02;29.30;44.10
36292;DHT22;22327;51.208;6.418;2022-07-23T15:11:28;29.40;44.40
36292;DHT22;22327;51.208;6.418;2022-07-23T15:13:57;29.50;44.50
36292;DHT22;22327;51.208;6.418;2022-07-23T15:16:23;29.60;44.10
36292;DHT22;22327;51.208;6.418;2022-07-23T15:18:48;29.60;43.30
36292;DHT22;22327;51.208;6.418;2022-07-23T15:21:14;29.60;43.20
36292;DHT22;22327;51.208;6.418;2022-07-23T15:23:40;29.50;43.40
36292;DHT22;22327;51.208;6.418;2022-07-23T15:26:07;29.40;43.70
36292;DHT22;22327;51.208;6.418;2022-07-23T15:28:34;29.50;44.10
36292;DHT22;22327;51.208;6.418;2022-07-23T15:31:00;29.70;43.70
36292;DHT22;22327;51.208;6.418;2022-07-23T15:33:26;29.70;43.40
36292;DHT22;22327;51.208;6.418;2022-07-23T15:35:51;30.00;43.40
36292;DHT22;22327;51.208;6.418;2022-07-23T15:38:18;30.00;43.20
36292;DHT22;22327;51.208;6.418;2022-07-23T15:40:44;30.00;42.40
36292;DHT22;22327;51.208;6.418;2022-07-23T15:43:09;30.10;43.50
36292;DHT22;22327;51.208;6.418;2022-07-23T15:45:35;30.10;43.90
36292;DHT22;22327;51.208;6.418;2022-07-23T15:48:00;30.20;43.10
36292;DHT22;22327;51.208;6.418;2022-07-23T15:50:26;30.40;41.90
36292;DHT22;22327;51.208;6.418;2022-07-23T15:52:52;30.50;42.10
36292;DHT22;22327;51.208;6.418;2022-07-23T15:55:17;30.50;41.60
36292;DHT22;22327;51.208;6.418;2022-07-23T15:57:43;30.60;41.80
36292;DHT22;22327;51.208;6.418;2022-07-23T16:00:09;30.60;41.60
36292;DHT22;22327;51.208;6.418;2022-07-23T16:02:35;30.60;41.80
36292;DHT22;22327;51.208;6.418;2022-07-23T16:05:00;30.50;41.50
36292;DHT22;22327;51.208;6.418;2022-07-23T16:07:26;30.50;41.80
36292;DHT22;22327;51.208;6.418;2022-07-23T16:09:52;30.30;41.70
36292;DHT22;22327;51.208;6.418;2022-07-23T16:12:17;30.40;42.00